sensor_id;sensor_type;location;lat;lon;timestamp;temperature;humidity
67194;DHT22;54121;53.508;49.422;2023-05-07T00:00:56;12.80;37.90
67194;DHT22;54121;53.508;49.422;2023-05-07T00:03:27;12.20;37.80
67194;DHT22;54121;53.508;49.422;2023-05-07T00:05:54;13.20;38.10
67194;DHT22;54121;53.508;49.422;2023-05-07T00:08:21;13.30;37.50
67194;DHT22;54121;53.508;49.422;2023-05-07T00:10:47;12.40;36.70
67194;DHT22;54121;53.508;49.422;2023-05-07T00:13:14;13.00;37.10
67194;DHT22;54121;53.508;49.422;2023-05-07T00:15:43;13.00;37.30
67194;DHT22;54121;53.508;49.422;2023-05-07T00:18:09;13.10;36.90
67194;DHT22;54121;53.508;49.422;2023-05-07T00:20:38;13.10;36.50
67194;DHT22;54121;53.508;49.422;2023-05-07T00:23:06;13.00;36.90
67194;DHT22;54121;53.508;49.422;2023-05-07T00:25:35;12.90;37.00
67194;DHT22;54121;53.508;49.422;2023-05-07T00:28:01;12.90;36.80
67194;DHT22;54121;53.508;49.422;2023-05-07T00:30:32;11.10;36.20
67194;DHT22;54121;53.508;49.422;2023-05-07T00:33:00;12.80;37.10
67194;DHT22;54121;53.508;49.422;2023-05-07T00:35:31;12.70;37.10
67194;DHT22;54121;53.508;49.422;2023-05-07T00:38:00;12.60;37.40
67194;DHT22;54121;53.508;49.422;2023-05-07T00:40:26;12.60;37.60
67194;DHT22;54121;53.508;49.422;2023-05-07T00:42:53;12.50;37.70
67194;DHT22;54121;53.508;49.422;2023-05-07T00:45:27;12.50;37.10
67194;DHT22;54121;53.508;49.422;2023-05-07T00:47:57;12.50;36.70
67194;DHT22;54121;53.508;49.422;2023-05-07T00:50:27;12.50;36.70
67194;DHT22;54121;53.508;49.422;2023-05-07T00:52:56;12.30;37.30
67194;DHT22;54121;53.508;49.422;2023-05-07T00:55:25;12.20;37.40
67194;DHT22;54121;53.508;49.422;2023-05-07T00:57:55;12.20;37.20
67194;DHT22;54121;53.508;49.422;2023-05-07T01:00:23;12.20;37.30
67194;DHT22;54121;53.508;49.422;2023-05-07T01:02:53;12.10;37.50
67194;DHT22;54121;53.508;49.422;2023-05-07T01:05:20;12.10;37.50
67194;DHT22;54121;53.508;49.422;2023-05-07T01:07:48;12.00;37.80
67194;DHT22;54121;53.508;49.422;2023-05-07T01:10:17;12.00;37.70
67194;DHT22;54121;53.508;49.422;2023-05-07T01:12:44;12.00;37.70
67194;DHT22;54121;53.508;49.422;2023-05-07T01:15:13;11.90;37.80
67194;DHT22;54121;53.508;49.422;2023-05-07T01:17:45;11.90;38.00
67194;DHT22;54121;53.508;49.422;2023-05-07T01:20:13;12.00;37.70
67194;DHT22;54121;53.508;49.422;2023-05-07T01:22:44;11.80;38.10
67194;DHT22;54121;53.508;49.422;2023-05-07T01:25:13;11.80;38.00
67194;DHT22;54121;53.508;49.422;2023-05-07T01:27:44;11.80;38.20
67194;DHT22;54121;53.508;49.422;2023-05-07T01:30:13;11.80;38.30
67194;DHT22;54121;53.508;49.422;2023-05-07T01:32:41;11.80;38.40
67194;DHT22;54121;53.508;49.422;2023-05-07T01:35:15;11.80;39.50
67194;DHT22;54121;53.508;49.422;2023-05-07T01:37:45;11.90;38.30
67194;DHT22;54121;53.508;49.422;2023-05-07T01:40:15;11.80;38.80
67194;DHT22;54121;53.508;49.422;2023-05-07T01:42:45;11.80;38.70
67194;DHT22;54121;53.508;49.422;2023-05-07T01:45:14;11.70;39.00
67194;DHT22;54121;53.508;49.422;2023-05-07T01:47:40;11.90;38.60
67194;DHT22;54121;53.508;49.422;2023-05-07T01:50:09;13.70;39.90
67194;DHT22;54121;53.508;49.422;2023-05-07T01:52:36;11.80;38.90
67194;DHT22;54121;53.508;49.422;2023-05-07T01:55:08;11.90;39.10
67194;DHT22;54121;53.508;49.422;2023-05-07T01:57:35;12.10;38.90
67194;DHT22;54121;53.508;49.422;2023-05-07T02:00:03;12.50;38.30
67194;DHT22;54121;53.508;49.422;2023-05-07T02:02:31;12.70;38.20
67194;DHT22;54121;53.508;49.422;2023-05-07T02:04:57;13.40;37.00
67194;DHT22;54121;53.508;49.422;2023-05-07T02:07:23;13.70;36.00
67194;DHT22;54121;53.508;49.422;2023-05-07T02:09:49;12.50;33.90
67194;DHT22;54121;53.508;49.422;2023-05-07T02:12:16;14.90;33.20
67194;DHT22;54121;53.508;49.422;2023-05-07T02:14:44;15.50;31.90
67194;DHT22;54121;53.508;49.422;2023-05-07T02:17:11;16.00;30.30
67194;DHT22;54121;53.508;49.422;2023-05-07T02:19:40;15.50;29.10
67194;DHT22;54121;53.508;49.422;2023-05-07T02:22:06;17.10;28.60
67194;DHT22;54121;53.508;49.422;2023-05-07T02:24:35;17.40;28.20
67194;DHT22;54121;53.508;49.422;2023-05-07T02:27:01;17.80;27.40
67194;DHT22;54121;53.508;49.422;2023-05-07T02:29:29;17.90;26.50
67194;DHT22;54121;53.508;49.422;2023-05-07T02:31:55;18.60;26.70
67194;DHT22;54121;53.508;49.422;2023-05-07T02:34:21;19.10;25.80
67194;DHT22;54121;53.508;49.422;2023-05-07T02:36:47;19.60;25.00
67194;DHT22;54121;53.508;49.422;2023-05-07T02:39:14;18.00;23.60
67194;DHT22;54121;53.508;49.422;2023-05-07T02:41:43;19.60;23.80
67194;DHT22;54121;53.508;49.422;2023-05-07T02:44:10;20.50;23.40
67194;DHT22;54121;53.508;49.422;2023-05-07T02:46:36;21.00;22.90
67194;DHT22;54121;53.508;49.422;2023-05-07T02:49:05;21.50;22.00
67194;DHT22;54121;53.508;49.422;2023-05-07T02:51:34;21.90;21.50
67194;DHT22;54121;53.508;49.422;2023-05-07T02:54:00;22.10;22.00
67194;DHT22;54121;53.508;49.422;2023-05-07T02:56:29;22.30;20.60
67194;DHT22;54121;53.508;49.422;2023-05-07T02:58:58;22.70;20.20
67194;DHT22;54121;53.508;49.422;2023-05-07T03:01:27;23.00;19.70
67194;DHT22;54121;53.508;49.422;2023-05-07T03:03:53;23.20;19.40
67194;DHT22;54121;53.508;49.422;2023-05-07T03:06:19;23.50;19.20
67194;DHT22;54121;53.508;49.422;2023-05-07T03:08:46;23.10;19.60
67194;DHT22;54121;53.508;49.422;2023-05-07T03:11:14;23.10;19.60
67194;DHT22;54121;53.508;49.422;2023-05-07T03:13:41;23.50;19.50
67194;DHT22;54121;53.508;49.422;2023-05-07T03:16:07;21.80;18.00
67194;DHT22;54121;53.508;49.422;2023-05-07T03:18:33;24.10;18.00
67194;DHT22;54121;53.508;49.422;2023-05-07T03:21:02;24.50;18.10
67194;DHT22;54121;53.508;49.422;2023-05-07T03:23:28;23.00;17.80
67194;DHT22;54121;53.508;49.422;2023-05-07T03:25:54;24.60;18.30
67194;DHT22;54121;53.508;49.422;2023-05-07T03:28:21;24.70;18.30
67194;DHT22;54121;53.508;49.422;2023-05-07T03:30:47;24.40;17.80
67194;DHT22;54121;53.508;49.422;2023-05-07T03:33:13;24.10;17.00
67194;DHT22;54121;53.508;49.422;2023-05-07T03:35:42;26.30;16.40
67194;DHT22;54121;53.508;49.422;2023-05-07T03:38:08;26.40;15.40
67194;DHT22;54121;53.508;49.422;2023-05-07T03:40:34;26.70;15.30
67194;DHT22;54121;53.508;49.422;2023-05-07T03:43:03;28.00;14.20
67194;DHT22;54121;53.508;49.422;2023-05-07T03:45:32;27.70;13.50
67194;DHT22;54121;53.508;49.422;2023-05-07T03:48:01;26.90;14.30
67194;DHT22;54121;53.508;49.422;2023-05-07T03:50:27;27.60;14.50
67194;DHT22;54121;53.508;49.422;2023-05-07T03:52:56;28.10;13.40
67194;DHT22;54121;53.508;49.422;2023-05-07T03:55:24;28.00;14.00
67194;DHT22;54121;53.508;49.422;2023-05-07T03:57:54;27.90;13.00
67194;DHT22;54121;53.508;49.422;2023-05-07T04:00:20;28.50;12.70
67194;DHT22;54121;53.508;49.422;2023-05-07T04:02:49;27.90;13.20
67194;DHT22;54121;53.508;49.422;2023-05-07T04:05:18;29.00;12.40
67194;DHT22;54121;53.508;49.422;2023-05-07T04:07:44;28.10;12.60
67194;DHT22;54121;53.508;49.422;2023-05-07T04:10:10;28.30;13.70
67194;DHT22;54121;53.508;49.422;2023-05-07T04:12:36;28.80;12.80
67194;DHT22;54121;53.508;49.422;2023-05-07T04:15:05;29.20;12.90
67194;DHT22;54121;53.508;49.422;2023-05-07T04:17:34;29.20;12.70
67194;DHT22;54121;53.508;49.422;2023-05-07T04:20:00;29.20;12.60
67194;DHT22;54121;53.508;49.422;2023-05-07T04:22:29;30.70;11.40
67194;DHT22;54121;53.508;49.422;2023-05-07T04:24:56;30.40;10.50
67194;DHT22;54121;53.508;49.422;2023-05-07T04:27:24;30.40;10.30
67194;DHT22;54121;53.508;49.422;2023-05-07T04:29:51;29.00;10.10
67194;DHT22;54121;53.508;49.422;2023-05-07T04:32:21;30.90;9.80
67194;DHT22;54121;53.508;49.422;2023-05-07T04:34:48;31.20;9.70
67194;DHT22;54121;53.508;49.422;2023-05-07T04:37:14;31.30;9.90
67194;DHT22;54121;53.508;49.422;2023-05-07T04:39:43;31.70;9.80
67194;DHT22;54121;53.508;49.422;2023-05-07T04:42:09;31.10;10.40
67194;DHT22;54121;53.508;49.422;2023-05-07T04:44:35;33.40;9.40
67194;DHT22;54121;53.508;49.422;2023-05-07T04:47:05;32.00;10.20
67194;DHT22;54121;53.508;49.422;2023-05-07T04:49:34;31.90;10.00
67194;DHT22;54121;53.508;49.422;2023-05-07T04:52:03;31.70;10.60
67194;DHT22;54121;53.508;49.422;2023-05-07T04:54:30;33.20;9.60
67194;DHT22;54121;53.508;49.422;2023-05-07T04:56:56;34.10;8.80
67194;DHT22;54121;53.508;49.422;2023-05-07T04:59:25;33.00;9.40
67194;DHT22;54121;53.508;49.422;2023-05-07T05:01:51;32.40;9.30
67194;DHT22;54121;53.508;49.422;2023-05-07T05:04:18;31.20;10.20
67194;DHT22;54121;53.508;49.422;2023-05-07T05:06:46;30.50;10.40
67194;DHT22;54121;53.508;49.422;2023-05-07T05:09:14;31.70;10.90
67194;DHT22;54121;53.508;49.422;2023-05-07T05:11:41;30.30;10.80
67194;DHT22;54121;53.508;49.422;2023-05-07T05:14:08;31.00;9.90
67194;DHT22;54121;53.508;49.422;2023-05-07T05:16:34;30.40;10.10
67194;DHT22;54121;53.508;49.422;2023-05-07T05:19:03;31.30;9.50
67194;DHT22;54121;53.508;49.422;2023-05-07T05:21:34;34.00;7.70
67194;DHT22;54121;53.508;49.422;2023-05-07T05:24:00;33.20;8.70
67194;DHT22;54121;53.508;49.422;2023-05-07T05:26:29;31.40;9.00
67194;DHT22;54121;53.508;49.422;2023-05-07T05:28:55;31.70;8.90
67194;DHT22;54121;53.508;49.422;2023-05-07T05:31:23;31.30;9.60
67194;DHT22;54121;53.508;49.422;2023-05-07T05:33:54;30.30;9.30
67194;DHT22;54121;53.508;49.422;2023-05-07T05:36:23;31.10;9.60
67194;DHT22;54121;53.508;49.422;2023-05-07T05:38:55;31.70;10.10
67194;DHT22;54121;53.508;49.422;2023-05-07T05:41:21;33.70;8.10
67194;DHT22;54121;53.508;49.422;2023-05-07T05:43:53;33.90;8.00
67194;DHT22;54121;53.508;49.422;2023-05-07T05:46:19;33.00;7.50
67194;DHT22;54121;53.508;49.422;2023-05-07T05:48:45;33.30;8.40
67194;DHT22;54121;53.508;49.422;2023-05-07T05:51:12;32.20;9.10
67194;DHT22;54121;53.508;49.422;2023-05-07T05:53:38;33.30;8.60
67194;DHT22;54121;53.508;49.422;2023-05-07T05:56:04;33.00;8.60
67194;DHT22;54121;53.508;49.422;2023-05-07T05:58:31;33.20;7.00
67194;DHT22;54121;53.508;49.422;2023-05-07T06:01:00;32.00;7.90
67194;DHT22;54121;53.508;49.422;2023-05-07T06:03:30;32.60;9.00
67194;DHT22;54121;53.508;49.422;2023-05-07T06:05:59;32.10;8.50
67194;DHT22;54121;53.508;49.422;2023-05-07T06:08:28;31.70;8.40
67194;DHT22;54121;53.508;49.422;2023-05-07T06:10:57;32.30;8.40
67194;DHT22;54121;53.508;49.422;2023-05-07T06:13:28;31.80;8.00
67194;DHT22;54121;53.508;49.422;2023-05-07T06:15:56;32.80;8.40
67194;DHT22;54121;53.508;49.422;2023-05-07T06:18:23;31.90;7.80
67194;DHT22;54121;53.508;49.422;2023-05-07T06:20:49;31.80;8.60
67194;DHT22;54121;53.508;49.422;2023-05-07T06:23:18;31.70;8.60
67194;DHT22;54121;53.508;49.422;2023-05-07T06:25:47;32.00;8.20
67194;DHT22;54121;53.508;49.422;2023-05-07T06:28:16;32.00;7.90
67194;DHT22;54121;53.508;49.422;2023-05-07T06:30:45;31.50;8.10
67194;DHT22;54121;53.508;49.422;2023-05-07T06:33:11;32.20;7.00
67194;DHT22;54121;53.508;49.422;2023-05-07T06:35:37;34.10;6.50
67194;DHT22;54121;53.508;49.422;2023-05-07T06:38:06;34.70;6.00
67194;DHT22;54121;53.508;49.422;2023-05-07T06:40:35;32.20;8.10
67194;DHT22;54121;53.508;49.422;2023-05-07T06:43:01;32.10;7.60
67194;DHT22;54121;53.508;49.422;2023-05-07T06:45:30;31.40;8.30
67194;DHT22;54121;53.508;49.422;2023-05-07T06:47:56;31.70;8.00
67194;DHT22;54121;53.508;49.422;2023-05-07T06:50:25;33.00;7.10
67194;DHT22;54121;53.508;49.422;2023-05-07T06:52:51;32.20;7.50
67194;DHT22;54121;53.508;49.422;2023-05-07T06:55:20;32.60;7.20
67194;DHT22;54121;53.508;49.422;2023-05-07T06:57:49;31.50;7.20
67194;DHT22;54121;53.508;49.422;2023-05-07T07:00:16;33.10;6.80
67194;DHT22;54121;53.508;49.422;2023-05-07T07:02:42;32.30;7.10
67194;DHT22;54121;53.508;49.422;2023-05-07T07:05:11;32.40;7.50
67194;DHT22;54121;53.508;49.422;2023-05-07T07:07:38;32.10;6.50
67194;DHT22;54121;53.508;49.422;2023-05-07T07:10:04;31.90;6.10
67194;DHT22;54121;53.508;49.422;2023-05-07T07:12:33;30.90;5.90
67194;DHT22;54121;53.508;49.422;2023-05-07T07:15:02;33.10;4.80
67194;DHT22;54121;53.508;49.422;2023-05-07T07:17:31;32.90;5.10
67194;DHT22;54121;53.508;49.422;2023-05-07T07:19:59;33.10;4.90
67194;DHT22;54121;53.508;49.422;2023-05-07T07:22:28;32.00;5.50
67194;DHT22;54121;53.508;49.422;2023-05-07T07:24:54;32.40;5.90
67194;DHT22;54121;53.508;49.422;2023-05-07T07:27:23;31.80;7.00
67194;DHT22;54121;53.508;49.422;2023-05-07T07:29:49;32.30;6.80
67194;DHT22;54121;53.508;49.422;2023-05-07T07:32:20;31.70;7.00
67194;DHT22;54121;53.508;49.422;2023-05-07T07:34:47;33.10;6.00
67194;DHT22;54121;53.508;49.422;2023-05-07T07:37:15;32.00;6.90
67194;DHT22;54121;53.508;49.422;2023-05-07T07:39:44;31.00;7.20
67194;DHT22;54121;53.508;49.422;2023-05-07T07:42:11;31.00;6.40
67194;DHT22;54121;53.508;49.422;2023-05-07T07:44:39;32.30;6.00
67194;DHT22;54121;53.508;49.422;2023-05-07T07:47:06;32.30;5.40
67194;DHT22;54121;53.508;49.422;2023-05-07T07:49:34;31.10;6.00
67194;DHT22;54121;53.508;49.422;2023-05-07T07:52:01;30.40;6.50
67194;DHT22;54121;53.508;49.422;2023-05-07T07:54:27;30.60;6.90
67194;DHT22;54121;53.508;49.422;2023-05-07T07:56:56;30.40;6.80
67194;DHT22;54121;53.508;49.422;2023-05-07T07:59:22;29.50;6.50
67194;DHT22;54121;53.508;49.422;2023-05-07T08:01:51;30.70;7.10
67194;DHT22;54121;53.508;49.422;2023-05-07T08:04:19;30.90;6.70
67194;DHT22;54121;53.508;49.422;2023-05-07T08:06:50;29.10;6.80
67194;DHT22;54121;53.508;49.422;2023-05-07T08:09:20;32.10;6.40
67194;DHT22;54121;53.508;49.422;2023-05-07T08:11:49;33.40;5.30
67194;DHT22;54121;53.508;49.422;2023-05-07T08:14:18;33.40;5.20
67194;DHT22;54121;53.508;49.422;2023-05-07T08:16:44;31.30;6.60
67194;DHT22;54121;53.508;49.422;2023-05-07T08:19:13;30.00;7.30
67194;DHT22;54121;53.508;49.422;2023-05-07T08:21:39;30.30;7.20
67194;DHT22;54121;53.508;49.422;2023-05-07T08:24:06;30.00;7.50
67194;DHT22;54121;53.508;49.422;2023-05-07T08:26:35;30.70;7.20
67194;DHT22;54121;53.508;49.422;2023-05-07T08:29:07;30.20;7.80
67194;DHT22;54121;53.508;49.422;2023-05-07T08:31:36;30.00;8.00
67194;DHT22;54121;53.508;49.422;2023-05-07T08:34:03;30.20;7.70
67194;DHT22;54121;53.508;49.422;2023-05-07T08:36:29;30.20;7.60
67194;DHT22;54121;53.508;49.422;2023-05-07T08:38:55;29.50;7.30
67194;DHT22;54121;53.508;49.422;2023-05-07T08:41:24;30.10;7.10
67194;DHT22;54121;53.508;49.422;2023-05-07T08:43:52;32.30;6.40
67194;DHT22;54121;53.508;49.422;2023-05-07T08:46:22;31.90;6.60
67194;DHT22;54121;53.508;49.422;2023-05-07T08:48:55;31.40;6.60
67194;DHT22;54121;53.508;49.422;2023-05-07T08:51:22;30.50;7.50
67194;DHT22;54121;53.508;49.422;2023-05-07T08:53:48;30.70;7.70
67194;DHT22;54121;53.508;49.422;2023-05-07T08:56:18;31.50;7.40
67194;DHT22;54121;53.508;49.422;2023-05-07T08:58:48;32.10;7.10
67194;DHT22;54121;53.508;49.422;2023-05-07T09:01:15;32.40;6.40
67194;DHT22;54121;53.508;49.422;2023-05-07T09:03:45;33.60;5.50
67194;DHT22;54121;53.508;49.422;2023-05-07T09:06:12;31.40;7.20
67194;DHT22;54121;53.508;49.422;2023-05-07T09:08:43;31.20;7.30
67194;DHT22;54121;53.508;49.422;2023-05-07T09:11:10;31.20;7.30
67194;DHT22;54121;53.508;49.422;2023-05-07T09:13:41;33.90;5.10
67194;DHT22;54121;53.508;49.422;2023-05-07T09:16:13;33.10;5.20
67194;DHT22;54121;53.508;49.422;2023-05-07T09:18:40;32.40;6.10
67194;DHT22;54121;53.508;49.422;2023-05-07T09:21:09;32.20;6.30
67194;DHT22;54121;53.508;49.422;2023-05-07T09:23:35;32.30;6.10
67194;DHT22;54121;53.508;49.422;2023-05-07T09:26:02;32.40;6.20
67194;DHT22;54121;53.508;49.422;2023-05-07T09:28:28;32.10;6.30
67194;DHT22;54121;53.508;49.422;2023-05-07T09:30:55;32.00;6.80
67194;DHT22;54121;53.508;49.422;2023-05-07T09:33:26;33.10;5.90
67194;DHT22;54121;53.508;49.422;2023-05-07T09:35:52;32.40;6.10
67194;DHT22;54121;53.508;49.422;2023-05-07T09:38:19;32.50;6.20
67194;DHT22;54121;53.508;49.422;2023-05-07T09:40:52;33.50;5.70
67194;DHT22;54121;53.508;49.422;2023-05-07T09:43:33;31.90;5.50
67194;DHT22;54121;53.508;49.422;2023-05-07T09:46:03;32.20;6.50
67194;DHT22;54121;53.508;49.422;2023-05-07T09:48:34;33.40;6.00
67194;DHT22;54121;53.508;49.422;2023-05-07T09:51:03;33.30;6.20
67194;DHT22;54121;53.508;49.422;2023-05-07T09:53:35;35.80;4.20
67194;DHT22;54121;53.508;49.422;2023-05-07T09:56:12;33.90;4.90
67194;DHT22;54121;53.508;49.422;2023-05-07T09:58:50;33.30;5.50
67194;DHT22;54121;53.508;49.422;2023-05-07T10:01:21;33.70;5.50
67194;DHT22;54121;53.508;49.422;2023-05-07T10:03:50;33.50;5.40
67194;DHT22;54121;53.508;49.422;2023-05-07T10:06:17;34.60;4.60
67194;DHT22;54121;53.508;49.422;2023-05-07T10:08:46;34.70;4.00
67194;DHT22;54121;53.508;49.422;2023-05-07T10:11:13;34.60;4.20
67194;DHT22;54121;53.508;49.422;2023-05-07T10:13:41;34.40;4.50
67194;DHT22;54121;53.508;49.422;2023-05-07T10:16:08;34.60;4.70
67194;DHT22;54121;53.508;49.422;2023-05-07T10:18:34;33.10;4.90
67194;DHT22;54121;53.508;49.422;2023-05-07T10:21:06;32.90;5.70
67194;DHT22;54121;53.508;49.422;2023-05-07T10:23:33;32.90;4.90
67194;DHT22;54121;53.508;49.422;2023-05-07T10:26:05;32.90;5.20
67194;DHT22;54121;53.508;49.422;2023-05-07T10:28:34;32.80;5.40
67194;DHT22;54121;53.508;49.422;2023-05-07T10:31:12;33.70;5.00
67194;DHT22;54121;53.508;49.422;2023-05-07T10:33:40;34.80;4.00
67194;DHT22;54121;53.508;49.422;2023-05-07T10:36:13;36.60;3.40
67194;DHT22;54121;53.508;49.422;2023-05-07T10:38:39;35.50;3.90
67194;DHT22;54121;53.508;49.422;2023-05-07T10:41:06;35.20;3.90
67194;DHT22;54121;53.508;49.422;2023-05-07T10:43:43;35.30;3.90
67194;DHT22;54121;53.508;49.422;2023-05-07T10:51:29;34.10;3.90
67194;DHT22;54121;53.508;49.422;2023-05-07T10:54:30;32.40;3.60
67194;DHT22;54121;53.508;49.422;2023-05-07T10:56:50;35.50;3.80
67194;DHT22;54121;53.508;49.422;2023-05-07T11:01:59;35.60;3.60
67194;DHT22;54121;53.508;49.422;2023-05-07T11:04:31;33.40;4.40
67194;DHT22;54121;53.508;49.422;2023-05-07T11:15:07;34.70;3.50
67194;DHT22;54121;53.508;49.422;2023-05-07T11:17:34;33.30;4.50
67194;DHT22;54121;53.508;49.422;2023-05-07T11:20:03;33.70;4.70
67194;DHT22;54121;53.508;49.422;2023-05-07T11:24:59;31.80;4.90
67194;DHT22;54121;53.508;49.422;2023-05-07T11:27:26;31.90;5.50
67194;DHT22;54121;53.508;49.422;2023-05-07T11:29:55;32.50;5.30
67194;DHT22;54121;53.508;49.422;2023-05-07T11:32:25;32.20;4.70
67194;DHT22;54121;53.508;49.422;2023-05-07T11:34:52;32.20;5.50
67194;DHT22;54121;53.508;49.422;2023-05-07T11:37:21;32.40;5.60
67194;DHT22;54121;53.508;49.422;2023-05-07T11:39:50;33.00;5.30
67194;DHT22;54121;53.508;49.422;2023-05-07T11:42:30;32.60;5.70
67194;DHT22;54121;53.508;49.422;2023-05-07T11:44:56;33.00;4.90
67194;DHT22;54121;53.508;49.422;2023-05-07T11:47:23;32.50;5.10
67194;DHT22;54121;53.508;49.422;2023-05-07T11:49:51;33.30;4.90
67194;DHT22;54121;53.508;49.422;2023-05-07T11:52:21;32.00;5.40
67194;DHT22;54121;53.508;49.422;2023-05-07T11:54:52;33.60;4.50
67194;DHT22;54121;53.508;49.422;2023-05-07T11:57:21;32.30;4.60
67194;DHT22;54121;53.508;49.422;2023-05-07T11:59:57;33.00;5.20
67194;DHT22;54121;53.508;49.422;2023-05-07T12:02:27;32.40;4.60
67194;DHT22;54121;53.508;49.422;2023-05-07T12:04:54;32.60;5.50
67194;DHT22;54121;53.508;49.422;2023-05-07T12:07:25;33.50;4.80
67194;DHT22;54121;53.508;49.422;2023-05-07T12:09:54;35.00;3.70
67194;DHT22;54121;53.508;49.422;2023-05-07T12:12:23;34.90;3.70
67194;DHT22;54121;53.508;49.422;2023-05-07T12:14:51;34.20;3.90
67194;DHT22;54121;53.508;49.422;2023-05-07T12:17:18;34.30;4.50
67194;DHT22;54121;53.508;49.422;2023-05-07T12:19:44;34.50;4.20
67194;DHT22;54121;53.508;49.422;2023-05-07T12:22:11;34.40;4.00
67194;DHT22;54121;53.508;49.422;2023-05-07T12:27:10;34.30;3.80
67194;DHT22;54121;53.508;49.422;2023-05-07T12:29:37;34.40;4.30
67194;DHT22;54121;53.508;49.422;2023-05-07T12:32:06;34.10;4.20
67194;DHT22;54121;53.508;49.422;2023-05-07T12:34:32;35.00;3.80
67194;DHT22;54121;53.508;49.422;2023-05-07T12:37:01;36.30;3.40
67194;DHT22;54121;53.508;49.422;2023-05-07T12:39:30;35.50;3.00
67194;DHT22;54121;53.508;49.422;2023-05-07T12:41:58;35.70;3.10
67194;DHT22;54121;53.508;49.422;2023-05-07T12:44:26;34.70;3.40
67194;DHT22;54121;53.508;49.422;2023-05-07T12:46:57;34.00;3.50
67194;DHT22;54121;53.508;49.422;2023-05-07T12:49:23;37.10;2.90
67194;DHT22;54121;53.508;49.422;2023-05-07T12:51:53;38.50;1.80
67194;DHT22;54121;53.508;49.422;2023-05-07T12:54:34;35.50;2.60
67194;DHT22;54121;53.508;49.422;2023-05-07T12:57:04;34.30;3.70
67194;DHT22;54121;53.508;49.422;2023-05-07T12:59:43;34.20;4.00
67194;DHT22;54121;53.508;49.422;2023-05-07T13:02:09;33.70;4.10
67194;DHT22;54121;53.508;49.422;2023-05-07T13:04:38;33.10;4.40
67194;DHT22;54121;53.508;49.422;2023-05-07T13:07:06;33.40;4.50
67194;DHT22;54121;53.508;49.422;2023-05-07T13:09:34;33.40;4.30
67194;DHT22;54121;53.508;49.422;2023-05-07T13:12:05;32.60;4.90
67194;DHT22;54121;53.508;49.422;2023-05-07T13:14:33;32.20;5.00
67194;DHT22;54121;53.508;49.422;2023-05-07T13:17:00;31.60;5.10
67194;DHT22;54121;53.508;49.422;2023-05-07T13:19:27;32.60;4.70
67194;DHT22;54121;53.508;49.422;2023-05-07T13:21:53;32.40;4.90
67194;DHT22;54121;53.508;49.422;2023-05-07T13:24:21;32.00;5.00
67194;DHT22;54121;53.508;49.422;2023-05-07T13:26:50;30.50;4.60
67194;DHT22;54121;53.508;49.422;2023-05-07T13:29:17;30.90;5.60
67194;DHT22;54121;53.508;49.422;2023-05-07T13:31:47;32.30;5.50
67194;DHT22;54121;53.508;49.422;2023-05-07T13:34:15;32.10;5.10
67194;DHT22;54121;53.508;49.422;2023-05-07T13:36:42;30.80;5.30
67194;DHT22;54121;53.508;49.422;2023-05-07T13:39:11;30.70;5.60
67194;DHT22;54121;53.508;49.422;2023-05-07T13:41:37;30.70;6.00
67194;DHT22;54121;53.508;49.422;2023-05-07T13:44:03;31.40;5.60
67194;DHT22;54121;53.508;49.422;2023-05-07T13:46:32;31.10;6.00
67194;DHT22;54121;53.508;49.422;2023-05-07T13:49:01;31.70;5.90
67194;DHT22;54121;53.508;49.422;2023-05-07T13:51:30;31.10;5.80
67194;DHT22;54121;53.508;49.422;2023-05-07T13:53:57;30.40;6.50
67194;DHT22;54121;53.508;49.422;2023-05-07T13:56:26;30.80;6.50
67194;DHT22;54121;53.508;49.422;2023-05-07T13:58:56;28.40;5.70
67194;DHT22;54121;53.508;49.422;2023-05-07T14:01:23;29.70;6.60
67194;DHT22;54121;53.508;49.422;2023-05-07T14:03:49;29.60;6.40
67194;DHT22;54121;53.508;49.422;2023-05-07T14:06:15;29.30;6.50
67194;DHT22;54121;53.508;49.422;2023-05-07T14:08:42;29.80;6.70
67194;DHT22;54121;53.508;49.422;2023-05-07T14:11:08;30.00;6.30
67194;DHT22;54121;53.508;49.422;2023-05-07T14:13:37;30.70;6.20
67194;DHT22;54121;53.508;49.422;2023-05-07T14:16:03;30.10;6.10
67194;DHT22;54121;53.508;49.422;2023-05-07T14:18:32;30.90;6.20
67194;DHT22;54121;53.508;49.422;2023-05-07T14:21:00;29.70;5.70
67194;DHT22;54121;53.508;49.422;2023-05-07T14:23:26;31.00;5.60
67194;DHT22;54121;53.508;49.422;2023-05-07T14:25:53;31.20;5.60
67194;DHT22;54121;53.508;49.422;2023-05-07T14:28:22;31.30;6.10
67194;DHT22;54121;53.508;49.422;2023-05-07T14:30:51;31.80;5.30
67194;DHT22;54121;53.508;49.422;2023-05-07T14:33:17;31.20;5.80
67194;DHT22;54121;53.508;49.422;2023-05-07T14:35:45;31.50;5.50
67194;DHT22;54121;53.508;49.422;2023-05-07T14:38:18;30.80;5.70
67194;DHT22;54121;53.508;49.422;2023-05-07T14:40:47;30.80;5.90
67194;DHT22;54121;53.508;49.422;2023-05-07T14:43:13;30.10;5.90
67194;DHT22;54121;53.508;49.422;2023-05-07T14:45:39;31.10;5.90
67194;DHT22;54121;53.508;49.422;2023-05-07T14:48:06;31.80;5.80
67194;DHT22;54121;53.508;49.422;2023-05-07T14:50:32;32.10;5.00
67194;DHT22;54121;53.508;49.422;2023-05-07T14:52:58;31.50;5.20
67194;DHT22;54121;53.508;49.422;2023-05-07T14:55:27;31.10;5.90
67194;DHT22;54121;53.508;49.422;2023-05-07T14:57:55;30.90;5.60
67194;DHT22;54121;53.508;49.422;2023-05-07T15:00:21;29.80;4.90
67194;DHT22;54121;53.508;49.422;2023-05-07T15:02:48;30.80;5.60
67194;DHT22;54121;53.508;49.422;2023-05-07T15:05:14;30.90;6.10
67194;DHT22;54121;53.508;49.422;2023-05-07T15:07:41;30.00;6.40
67194;DHT22;54121;53.508;49.422;2023-05-07T15:10:07;30.10;6.30
67194;DHT22;54121;53.508;49.422;2023-05-07T15:12:34;30.80;6.60
67194;DHT22;54121;53.508;49.422;2023-05-07T15:15:05;30.30;6.00
67194;DHT22;54121;53.508;49.422;2023-05-07T15:17:36;29.50;6.60
67194;DHT22;54121;53.508;49.422;2023-05-07T15:20:08;29.40;6.70
67194;DHT22;54121;53.508;49.422;2023-05-07T15:22:35;29.10;6.50
67194;DHT22;54121;53.508;49.422;2023-05-07T15:25:03;27.80;6.50
67194;DHT22;54121;53.508;49.422;2023-05-07T15:27:30;28.40;7.30
67194;DHT22;54121;53.508;49.422;2023-05-07T15:29:59;27.80;7.20
67194;DHT22;54121;53.508;49.422;2023-05-07T15:32:28;27.80;7.40
67194;DHT22;54121;53.508;49.422;2023-05-07T15:34:54;27.00;7.60
67194;DHT22;54121;53.508;49.422;2023-05-07T15:37:23;26.80;7.80
67194;DHT22;54121;53.508;49.422;2023-05-07T15:39:49;26.50;7.90
67194;DHT22;54121;53.508;49.422;2023-05-07T15:42:18;26.10;8.00
67194;DHT22;54121;53.508;49.422;2023-05-07T15:44:44;26.10;8.50
67194;DHT22;54121;53.508;49.422;2023-05-07T15:47:12;25.30;8.50
67194;DHT22;54121;53.508;49.422;2023-05-07T15:49:40;24.40;8.40
67194;DHT22;54121;53.508;49.422;2023-05-07T15:52:09;25.20;8.70